Time;durP1;ratioP1;P1;durP2;ratioP2;P2;SDS_P1;SDS_P2;PMS_P1;PMS_P2;Temp;Humidity;BMP_temperature;BMP_pressure;BME280_temperature;BME280_humidity;BME280_pressure;Samples;Min_cycle;Max_cycle;Signal;HPM_P1;HPM_P2
2024/01/18 00:01:15;;;;;;;57.60;29.67;;;;;;;-144.74;100.00;63161.41;5053738;28;20028;-74
2024/01/18 00:03:41;;;;;;;68.45;33.42;;;;;;;-144.74;100.00;63161.41;5052322;28;20024;-74
2024/01/18 00:06:07;;;;;;;66.30;30.97;;;;;;;-144.74;100.00;63161.41;5054049;28;20036;-73
2024/01/18 00:08:33;;;;;;;65.03;33.10;;;;;;;-144.74;100.00;63161.41;5053581;28;20028;-74
2024/01/18 00:11:02;;;;;;;66.28;33.03;;;;;;;-144.74;100.00;63161.41;5054311;28;20023;-74
2024/01/18 00:13:28;;;;;;;57.10;32.40;;;;;;;-144.74;100.00;63161.41;5054166;28;20111;-72
2024/01/18 00:15:53;;;;;;;62.23;31.23;;;;;;;-144.74;100.00;63161.41;5053892;28;20120;-74
2024/01/18 00:18:18;;;;;;;61.63;33.92;;;;;;;-144.74;100.00;63161.41;5054383;28;20020;-74
2024/01/18 00:20:44;;;;;;;68.13;37.05;;;;;;;-144.74;100.00;63161.41;5053344;28;20522;-73
2024/01/18 00:23:09;;;;;;;76.82;34.78;;;;;;;-144.74;100.00;63161.41;5054248;28;20033;-74
2024/01/18 00:25:34;;;;;;;63.10;36.25;;;;;;;-144.74;100.00;63161.41;5053579;28;20248;-73
2024/01/18 00:28:00;;;;;;;60.72;33.80;;;;;;;-144.74;100.00;63161.41;5054179;28;20059;-75
2024/01/18 00:30:28;;;;;;;64.32;34.63;;;;;;;-144.74;100.00;63161.41;5053334;28;20040;-73
2024/01/18 00:32:54;;;;;;;70.33;36.80;;;;;;;-144.74;100.00;63161.41;5054063;28;20029;-75
2024/01/18 00:35:19;;;;;;;69.90;36.40;;;;;;;-144.74;100.00;63161.41;5053685;28;20028;-74
2024/01/18 00:37:44;;;;;;;59.90;33.63;;;;;;;-144.74;100.00;63161.41;5054583;28;20074;-73
2024/01/18 00:40:12;;;;;;;65.47;36.97;;;;;;;-144.74;100.00;63161.41;5048445;28;20043;-73
2024/01/18 00:42:38;;;;;;;65.10;34.93;;;;;;;-144.74;100.00;63161.41;5053783;28;20024;-75
2024/01/18 00:45:03;;;;;;;67.50;37.43;;;;;;;-144.74;100.00;63161.41;5053659;28;20116;-74
2024/01/18 00:47:29;;;;;;;74.10;38.60;;;;;;;-144.74;100.00;63161.41;5054169;28;20031;-73
2024/01/18 00:49:54;;;;;;;74.27;38.40;;;;;;;-144.74;100.00;63161.41;5053341;28;20036;-73
2024/01/18 00:52:20;;;;;;;74.97;39.07;;;;;;;-144.74;100.00;63161.41;5054693;28;20093;-75
2024/01/18 00:54:45;;;;;;;70.37;39.23;;;;;;;-144.74;100.00;63161.41;5056820;28;20039;-73
2024/01/18 00:57:10;;;;;;;75.30;38.47;;;;;;;-144.74;100.00;63161.41;5057401;28;20020;-74
2024/01/18 00:59:36;;;;;;;77.67;38.70;;;;;;;-144.74;100.00;63161.41;5050005;28;20044;-74
2024/01/18 01:02:03;;;;;;;72.47;37.90;;;;;;;-144.74;100.00;63161.41;5057744;28;20052;-75
2024/01/18 01:04:32;;;;;;;69.07;37.05;;;;;;;-144.74;100.00;63161.41;5056916;28;20036;-74
2024/01/18 01:06:57;;;;;;;85.63;35.83;;;;;;;-144.74;100.00;63161.41;5057774;28;20025;-72
2024/01/18 01:09:22;;;;;;;84.85;41.95;;;;;;;-144.74;100.00;63161.41;5057049;28;20033;-75
2024/01/18 01:11:48;;;;;;;73.13;37.87;;;;;;;-144.74;100.00;63161.41;5057596;28;20024;-72
2024/01/18 01:14:13;;;;;;;82.30;38.70;;;;;;;-144.74;100.00;63161.41;5056575;28;20047;-72
2024/01/18 01:16:39;;;;;;;80.30;40.83;;;;;;;-144.74;100.00;63161.41;5057159;28;20028;-73
2024/01/18 01:19:04;;;;;;;75.60;41.10;;;;;;;-144.74;100.00;63161.41;5056660;28;20082;-72
2024/01/18 01:21:30;;;;;;;77.33;38.27;;;;;;;-144.74;100.00;63161.41;5042700;28;20031;-73
2024/01/18 01:23:56;;;;;;;77.60;38.20;;;;;;;-144.74;100.00;63161.41;5048146;28;20109;-74
2024/01/18 01:26:21;;;;;;;76.87;37.97;;;;;;;-144.74;100.00;63161.41;5056915;28;20025;-72
2024/01/18 01:28:49;;;;;;;84.20;40.33;;;;;;;-144.74;100.00;63161.41;5054258;28;20020;-74
2024/01/18 01:31:15;;;;;;;77.20;40.67;;;;;;;-144.74;100.00;63161.41;5056569;28;20052;-73
2024/01/18 01:33:42;;;;;;;72.80;36.85;;;;;;;-144.74;100.00;63161.41;5056214;28;20025;-73
2024/01/18 01:36:07;;;;;;;82.20;39.50;;;;;;;-144.74;100.00;63161.41;5056721;28;20025;-73
2024/01/18 01:38:33;;;;;;;76.32;39.88;;;;;;;-144.74;100.00;63161.41;5056049;28;20031;-73
2024/01/18 01:40:59;;;;;;;72.17;37.97;;;;;;;-144.74;100.00;63161.41;5057031;28;20086;-73
2024/01/18 01:43:24;;;;;;;93.82;40.60;;;;;;;-144.74;100.00;63161.41;5056884;28;20085;-73
2024/01/18 01:45:50;;;;;;;70.22;39.55;;;;;;;-144.74;100.00;63161.41;5055657;28;20025;-73
2024/01/18 01:48:16;;;;;;;87.05;39.70;;;;;;;-144.74;100.00;63161.41;5056517;28;20028;-73
2024/01/18 01:50:41;;;;;;;72.47;39.45;;;;;;;-144.74;100.00;63161.41;5055924;28;20029;-73
2024/01/18 01:53:09;;;;;;;77.95;40.22;;;;;;;-144.74;100.00;63161.41;5056781;28;20019;-73
2024/01/18 01:55:36;;;;;;;72.22;39.15;;;;;;;-144.74;100.00;63161.41;5056594;28;20116;-72
2024/01/18 01:58:02;;;;;;;77.70;38.25;;;;;;;-144.74;100.00;63161.41;5056446;28;20025;-74
2024/01/18 02:00:28;;;;;;;81.35;42.00;;;;;;;-144.74;100.00;63161.41;5055844;28;20028;-74
2024/01/18 02:02:53;;;;;;;70.57;39.30;;;;;;;-144.74;100.00;63161.41;5055850;28;20021;-72
2024/01/18 02:05:19;;;;;;;73.22;37.05;;;;;;;-144.74;100.00;63161.41;5054699;28;20063;-73
2024/01/18 02:07:47;;;;;;;75.77;40.83;;;;;;;-144.74;100.00;63161.41;5056404;28;20032;-73
2024/01/18 02:10:13;;;;;;;80.03;39.07;;;;;;;-144.74;100.00;63161.41;5055877;28;20032;-74
2024/01/18 02:12:39;;;;;;;70.72;38.17;;;;;;;-144.74;100.00;63161.41;5056252;28;20024;-73
2024/01/18 02:15:05;;;;;;;77.27;41.70;;;;;;;-144.74;100.00;63161.41;5055431;28;20039;-73
2024/01/18 02:17:30;;;;;;;83.80;41.80;;;;;;;-144.74;100.00;63161.41;5056025;28;20028;-73
2024/01/18 02:19:56;;;;;;;74.10;35.23;;;;;;;-144.74;100.00;63161.41;5055007;28;20044;-73
2024/01/18 02:22:26;;;;;;;75.20;40.30;;;;;;;-144.74;100.00;63161.41;5055819;28;20024;-73
2024/01/18 02:25:12;;;;;;;64.00;35.00;;;;;;;-144.74;100.00;63161.41;5055246;28;20491;-73
2024/01/18 02:27:38;;;;;;;81.93;39.70;;;;;;;-144.74;100.00;63161.41;5056242;28;20025;-73
2024/01/18 02:30:05;;;;;;;80.67;39.03;;;;;;;-144.74;100.00;63161.41;5038831;28;20108;-72
2024/01/18 02:32:31;;;;;;;72.00;37.80;;;;;;;-144.74;100.00;63161.41;5055286;28;20064;-72
2024/01/18 02:34:56;;;;;;;72.80;38.13;;;;;;;-144.74;100.00;63161.41;5055033;28;20068;-74
2024/01/18 02:37:21;;;;;;;78.27;37.37;;;;;;;-144.74;100.00;63161.41;5056087;28;20032;-73
2024/01/18 02:39:48;;;;;;;76.20;35.17;;;;;;;-144.74;100.00;63161.41;5055384;28;20033;-73
2024/01/18 02:42:13;;;;;;;73.80;35.27;;;;;;;-144.74;100.00;63161.41;5055511;28;20079;-74
2024/01/18 02:44:39;;;;;;;76.87;39.30;;;;;;;-144.74;100.00;63161.41;5054826;28;20056;-73
2024/01/18 02:47:04;;;;;;;94.67;41.13;;;;;;;-144.74;100.00;63161.41;5055408;28;20075;-73
2024/01/18 02:49:35;;;;;;;61.73;34.93;;;;;;;-144.74;100.00;63161.41;5040708;28;20037;-73
2024/01/18 02:52:01;;;;;;;54.58;28.55;;;;;;;-144.74;100.00;63161.41;5039243;28;20020;-74
2024/01/18 02:54:26;;;;;;;77.37;39.13;;;;;;;-144.74;100.00;63161.41;5055082;28;20135;-73
2024/01/18 02:56:52;;;;;;;74.43;37.77;;;;;;;-144.74;100.00;63161.41;5055143;28;20032;-73
2024/01/18 02:59:17;;;;;;;94.63;45.23;;;;;;;-144.74;100.00;63161.41;5055052;28;20086;-73
2024/01/18 03:01:42;;;;;;;76.50;39.00;;;;;;;-144.74;100.00;63161.41;5055184;28;20077;-73
2024/01/18 03:04:08;;;;;;;91.23;43.63;;;;;;;-144.74;100.00;63161.41;5054733;28;20033;-72
2024/01/18 03:06:33;;;;;;;85.77;42.17;;;;;;;-144.74;100.00;63161.41;5055216;28;20024;-73
2024/01/18 03:09:01;;;;;;;91.47;45.33;;;;;;;-144.74;100.00;63161.41;5053285;28;20036;-75
2024/01/18 03:11:26;;;;;;;84.70;43.93;;;;;;;-144.74;100.00;63161.41;5051012;28;20024;-75
2024/01/18 03:13:52;;;;;;;96.87;40.93;;;;;;;-144.74;100.00;63161.41;5054802;28;20086;-75
2024/01/18 03:16:18;;;;;;;84.43;42.77;;;;;;;-144.74;100.00;63161.41;5055500;28;20070;-75
2024/01/18 03:18:46;;;;;;;91.07;44.83;;;;;;;-144.74;100.00;63161.41;5054926;28;20104;-75
2024/01/18 03:21:11;;;;;;;75.97;40.97;;;;;;;-144.74;100.00;63161.41;5051410;28;20033;-76
2024/01/18 03:23:37;;;;;;;82.07;39.93;;;;;;;-144.74;100.00;63161.41;5051880;28;20028;-75
2024/01/18 03:26:02;;;;;;;82.23;39.50;;;;;;;-144.74;100.00;63161.41;5052616;28;20075;-74
2024/01/18 03:28:28;;;;;;;100.10;45.00;;;;;;;-144.74;100.00;63161.41;5050842;28;20501;-74
2024/01/18 03:30:53;;;;;;;84.30;42.23;;;;;;;-144.74;100.00;63161.41;5054812;28;20043;-75
2024/01/18 03:33:18;;;;;;;88.37;40.90;;;;;;;-144.74;100.00;63161.41;5055320;28;20027;-76
2024/01/18 03:35:44;;;;;;;98.40;41.27;;;;;;;-144.74;100.00;63161.41;5052678;28;20032;-75
2024/01/18 03:38:09;;;;;;;75.27;37.63;;;;;;;-144.74;100.00;63161.41;5065379;28;20035;-75
2024/01/18 03:40:36;;;;;;;97.03;46.43;;;;;;;-144.74;100.00;63161.41;5054292;28;20074;-75
2024/01/18 03:43:02;;;;;;;93.70;44.50;;;;;;;-144.74;100.00;63161.41;5053088;28;20075;-75
2024/01/18 03:45:27;;;;;;;77.50;38.63;;;;;;;-144.74;100.00;63161.41;5053419;28;20112;-74
2024/01/18 03:47:53;;;;;;;83.63;40.50;;;;;;;-144.74;100.00;63161.41;5054180;28;20033;-75
2024/01/18 03:50:19;;;;;;;90.80;44.93;;;;;;;-144.74;100.00;63161.41;5053770;28;20047;-76
2024/01/18 03:52:44;;;;;;;91.17;42.93;;;;;;;-144.74;100.00;63161.41;5054139;28;20035;-74
2024/01/18 03:55:09;;;;;;;89.40;43.97;;;;;;;-144.74;100.00;63161.41;5053535;28;20032;-74
2024/01/18 03:57:35;;;;;;;91.00;44.10;;;;;;;-144.74;100.00;63161.41;5052862;28;20028;-75
2024/01/18 04:00:02;;;;;;;92.10;44.10;;;;;;;-144.74;100.00;63161.41;5046558;28;20036;-74
2024/01/18 04:02:27;;;;;;;90.33;44.17;;;;;;;-144.74;100.00;63161.41;5050381;28;20033;-75
2024/01/18 04:04:53;;;;;;;83.07;40.77;;;;;;;-144.74;100.00;63161.41;5052716;28;20043;-74
2024/01/18 04:07:18;;;;;;;82.97;40.53;;;;;;;-144.74;100.00;63161.41;5054096;28;20028;-75
2024/01/18 04:09:44;;;;;;;82.83;44.37;;;;;;;-144.74;100.00;63161.41;5051971;28;20029;-75
2024/01/18 04:12:10;;;;;;;92.87;45.13;;;;;;;-144.74;100.00;63161.41;5053936;28;20035;-75
2024/01/18 04:14:35;;;;;;;84.77;41.47;;;;;;;-144.74;100.00;63161.41;5053065;28;20029;-74
2024/01/18 04:17:01;;;;;;;88.67;41.30;;;;;;;-144.74;100.00;63161.41;5053770;28;20028;-75
2024/01/18 04:19:26;;;;;;;79.60;40.40;;;;;;;-144.74;100.00;63161.41;5053358;28;20037;-74
2024/01/18 04:21:51;;;;;;;73.60;36.13;;;;;;;-144.74;100.00;63161.41;5053971;28;20403;-75
2024/01/18 04:24:17;;;;;;;79.73;38.77;;;;;;;-144.74;100.00;63161.41;5054014;28;20040;-75
2024/01/18 04:26:42;;;;;;;81.73;38.07;;;;;;;-144.74;100.00;63161.41;5053718;28;20028;-75
2024/01/18 04:29:08;;;;;;;82.67;38.67;;;;;;;-144.74;100.00;63161.41;5055303;28;20033;-74
2024/01/18 04:31:33;;;;;;;85.63;43.83;;;;;;;-144.74;100.00;63161.41;5056785;28;20507;-75
2024/01/18 04:33:59;;;;;;;79.57;38.43;;;;;;;-144.74;100.00;63161.41;5057196;28;20044;-75
2024/01/18 04:36:24;;;;;;;91.50;45.50;;;;;;;-144.74;100.00;63161.41;5058016;28;20021;-74
2024/01/18 04:38:50;;;;;;;86.97;42.20;;;;;;;-144.74;100.00;63161.41;5056991;28;20032;-75
2024/01/18 04:41:15;;;;;;;83.67;40.60;;;;;;;-144.74;100.00;63161.41;5056072;28;20036;-74
2024/01/18 04:43:41;;;;;;;78.37;43.33;;;;;;;-144.74;100.00;63161.41;5056746;28;20028;-74
2024/01/18 04:46:09;;;;;;;77.87;41.43;;;;;;;-144.74;100.00;63161.41;5057881;28;20129;-74
2024/01/18 04:48:36;;;;;;;69.03;38.70;;;;;;;-144.74;100.00;63161.41;5055114;28;20028;-74
2024/01/18 04:51:03;;;;;;;77.57;39.33;;;;;;;-144.74;100.00;63161.41;5073605;28;20029;-74
2024/01/18 04:53:29;;;;;;;87.93;45.27;;;;;;;-144.74;100.00;63161.41;5057191;28;20036;-74
2024/01/18 04:55:55;;;;;;;79.60;42.83;;;;;;;-144.74;100.00;63161.41;5057286;28;20063;-74
2024/01/18 04:58:21;;;;;;;83.47;42.67;;;;;;;-144.74;100.00;63161.41;5057489;28;20029;-74
2024/01/18 05:00:46;;;;;;;90.33;44.87;;;;;;;-144.74;100.00;63161.41;5048537;28;20143;-73
2024/01/18 05:03:12;;;;;;;81.47;41.30;;;;;;;-144.74;100.00;63161.41;5057179;28;20047;-73
2024/01/18 05:05:37;;;;;;;79.53;38.03;;;;;;;-144.74;100.00;63161.41;5056996;28;20040;-74
2024/01/18 05:08:03;;;;;;;77.73;38.00;;;;;;;-144.74;100.00;63161.41;5057608;28;20067;-74
2024/01/18 05:10:28;;;;;;;78.30;36.60;;;;;;;-144.74;100.00;63161.41;5056605;28;20032;-75
2024/01/18 05:12:54;;;;;;;75.97;36.10;;;;;;;-144.74;100.00;63161.41;5057130;28;20028;-74
2024/01/18 05:15:19;;;;;;;68.90;36.20;;;;;;;-144.74;100.00;63161.41;5056386;28;20028;-74
2024/01/18 05:17:46;;;;;;;69.27;35.03;;;;;;;-144.74;100.00;63161.41;5057152;28;20040;-76
2024/01/18 05:20:12;;;;;;;72.67;36.57;;;;;;;-144.74;100.00;63161.41;5041969;28;20094;-75
2024/01/18 05:22:38;;;;;;;80.63;38.10;;;;;;;-144.74;100.00;63161.41;5057548;28;20028;-73
2024/01/18 05:25:05;;;;;;;62.90;32.57;;;;;;;-144.74;100.00;63161.41;5056581;28;20032;-73
2024/01/18 05:27:30;;;;;;;76.40;38.77;;;;;;;-144.74;100.00;63161.41;5057547;28;20020;-75
2024/01/18 05:29:59;;;;;;;76.73;35.90;;;;;;;-144.74;100.00;63161.41;5056668;28;20040;-74
2024/01/18 05:32:25;;;;;;;72.20;37.30;;;;;;;-144.74;100.00;63161.41;5057270;28;20028;-75
2024/01/18 05:34:51;;;;;;;69.13;33.27;;;;;;;-144.74;100.00;63161.41;5056239;28;20086;-74
2024/01/18 05:37:18;;;;;;;65.83;32.33;;;;;;;-144.74;100.00;63161.41;5057129;28;20032;-75
2024/01/18 05:39:43;;;;;;;70.07;38.73;;;;;;;-144.74;100.00;63161.41;5056403;28;20045;-75
2024/01/18 05:42:09;;;;;;;77.80;41.63;;;;;;;-144.74;100.00;63161.41;5056985;28;20524;-74
2024/01/18 05:44:34;;;;;;;78.97;39.73;;;;;;;-144.74;100.00;63161.41;5056146;28;20063;-75
2024/01/18 05:47:00;;;;;;;77.40;38.10;;;;;;;-144.74;100.00;63161.41;5055005;28;20027;-74
2024/01/18 05:49:25;;;;;;;85.60;39.53;;;;;;;-144.74;100.00;63161.41;5051768;28;20105;-75
2024/01/18 05:51:51;;;;;;;79.43;40.83;;;;;;;-144.74;100.00;63161.41;5056324;28;20491;-76
2024/01/18 05:54:16;;;;;;;83.07;42.63;;;;;;;-144.74;100.00;63161.41;5055730;28;20036;-74
2024/01/18 05:56:42;;;;;;;78.50;39.40;;;;;;;-144.74;100.00;63161.41;5055705;28;20025;-74
2024/01/18 05:59:07;;;;;;;92.07;40.10;;;;;;;-144.74;100.00;63161.41;5056082;28;20029;-74
2024/01/18 06:01:33;;;;;;;84.57;39.80;;;;;;;-144.74;100.00;63161.41;5056892;28;20111;-76
2024/01/18 06:03:58;;;;;;;73.77;38.47;;;;;;;-144.74;100.00;63161.41;5053899;28;20075;-74
2024/01/18 06:06:24;;;;;;;89.57;36.57;;;;;;;-144.74;100.00;63161.41;5056272;28;20062;-74
2024/01/18 06:08:49;;;;;;;82.57;38.23;;;;;;;-144.74;100.00;63161.41;5055240;28;20120;-75
2024/01/18 06:11:15;;;;;;;70.83;36.13;;;;;;;-144.74;100.00;63161.41;5056029;28;20020;-75
2024/01/18 06:13:41;;;;;;;80.00;37.10;;;;;;;-144.74;100.00;63161.41;5055740;28;20028;-75
2024/01/18 06:16:10;;;;;;;69.00;35.63;;;;;;;-144.74;100.00;63161.41;5056758;28;20085;-74
2024/01/18 06:18:42;;;;;;;68.67;34.40;;;;;;;-144.74;100.00;63161.41;5056355;28;20028;-74
2024/01/18 06:21:07;;;;;;;;;;;;;;;-144.74;100.00;63161.41;5050562;28;20042;-74
2024/01/18 06:23:33;;;;;;;76.60;33.03;;;;;;;-144.74;100.00;63161.41;5055751;28;19991;-74
2024/01/18 06:25:58;;;;;;;69.77;33.80;;;;;;;-144.74;100.00;63161.41;5047981;28;20033;-75
2024/01/18 06:28:24;;;;;;;74.23;36.30;;;;;;;-144.74;100.00;63161.41;5056472;28;20078;-75
2024/01/18 06:30:49;;;;;;;76.23;34.17;;;;;;;-144.74;100.00;63161.41;5055890;28;20050;-74
2024/01/18 06:33:15;;;;;;;75.50;39.20;;;;;;;-144.74;100.00;63161.41;5055729;28;20154;-74
2024/01/18 06:35:40;;;;;;;86.17;39.33;;;;;;;-144.74;100.00;63161.41;5055077;28;20063;-74
2024/01/18 06:38:06;;;;;;;69.33;35.27;;;;;;;-144.74;100.00;63161.41;5055851;28;20108;-74
2024/01/18 06:40:31;;;;;;;73.00;35.00;;;;;;;-144.74;100.00;63161.41;5054603;28;20040;-75
2024/01/18 06:42:56;;;;;;;84.93;40.13;;;;;;;-144.74;100.00;63161.41;5055609;28;20083;-75
2024/01/18 06:45:22;;;;;;;82.63;40.27;;;;;;;-144.74;100.00;63161.41;5054811;28;20129;-75
2024/01/18 06:47:47;;;;;;;91.07;45.37;;;;;;;-144.74;100.00;63161.41;5055424;28;20046;-74
2024/01/18 06:50:15;;;;;;;99.20;46.23;;;;;;;-144.74;100.00;63161.41;5054169;28;20141;-74
2024/01/18 06:52:40;;;;;;;97.07;46.90;;;;;;;-144.74;100.00;63161.41;5053711;28;20024;-74
2024/01/18 06:55:08;;;;;;;107.90;49.40;;;;;;;-144.74;100.00;63161.41;5054419;28;20021;-74
2024/01/18 06:57:33;;;;;;;123.47;53.67;;;;;;;-144.74;100.00;63161.41;5054813;28;20029;-75
2024/01/18 06:59:59;;;;;;;86.23;43.77;;;;;;;-144.74;100.00;63161.41;5054652;28;20087;-75
2024/01/18 07:02:24;;;;;;;92.13;47.87;;;;;;;-144.74;100.00;63161.41;5056634;28;20020;-74
2024/01/18 07:04:49;;;;;;;104.13;48.53;;;;;;;-144.74;100.00;63161.41;5055449;28;20495;-75
2024/01/18 07:07:15;;;;;;;107.00;50.63;;;;;;;-144.74;100.00;63161.41;5054515;28;20391;-74
2024/01/18 07:09:40;;;;;;;107.53;48.57;;;;;;;-144.74;100.00;63161.41;5052385;28;20029;-74
2024/01/18 07:12:06;;;;;;;88.57;44.73;;;;;;;-144.74;100.00;63161.41;5054657;28;20179;-74
2024/01/18 07:14:31;;;;;;;98.03;43.60;;;;;;;-144.74;100.00;63161.41;5054363;28;20108;-74
2024/01/18 07:16:57;;;;;;;84.60;43.83;;;;;;;-144.74;100.00;63161.41;5055282;28;20020;-73
2024/01/18 07:19:22;;;;;;;95.03;44.50;;;;;;;-144.74;100.00;63161.41;5054061;28;20119;-74
2024/01/18 07:21:47;;;;;;;102.00;46.73;;;;;;;-144.74;100.00;63161.41;5054860;28;20037;-74
2024/01/18 07:24:13;;;;;;;117.10;53.97;;;;;;;-144.74;100.00;63161.41;5052585;28;20041;-74
2024/01/18 07:26:40;;;;;;;109.07;49.37;;;;;;;-144.74;100.00;63161.41;5054795;28;20028;-74
2024/01/18 07:29:06;;;;;;;104.70;48.33;;;;;;;-144.74;100.00;63161.41;5042997;28;20098;-74
2024/01/18 07:31:31;;;;;;;98.47;47.13;;;;;;;-144.74;100.00;63161.41;5050719;28;20494;-74
2024/01/18 07:33:56;;;;;;;106.70;47.43;;;;;;;-144.74;100.00;63161.41;5053659;28;20031;-74
2024/01/18 07:36:25;;;;;;;105.27;49.47;;;;;;;-144.74;100.00;63161.41;5054561;28;20016;-74
2024/01/18 07:38:50;;;;;;;94.47;47.03;;;;;;;-144.74;100.00;63161.41;5043226;28;20513;-75
2024/01/18 07:41:15;;;;;;;106.93;51.17;;;;;;;-144.74;100.00;63161.41;5054355;28;20127;-73
2024/01/18 07:43:41;;;;;;;113.43;50.17;;;;;;;-144.74;100.00;63161.41;5053516;28;20364;-73
2024/01/18 07:46:06;;;;;;;92.77;45.80;;;;;;;-144.74;100.00;63161.41;5054223;28;20028;-74
2024/01/18 07:48:32;;;;;;;109.60;47.13;;;;;;;-144.74;100.00;63161.41;5053694;28;20391;-73
2024/01/18 07:50:57;;;;;;;101.50;48.93;;;;;;;-144.74;100.00;63161.41;5054492;28;20463;-74
2024/01/18 07:53:23;;;;;;;110.60;46.10;;;;;;;-144.74;100.00;63161.41;5052034;28;20032;-74
2024/01/18 07:55:49;;;;;;;111.13;49.33;;;;;;;-144.74;100.00;63161.41;5053359;28;20052;-73
2024/01/18 07:58:14;;;;;;;107.57;48.77;;;;;;;-144.74;100.00;63161.41;5054420;28;20158;-73
2024/01/18 08:00:41;;;;;;;107.20;49.60;;;;;;;-144.74;100.00;63161.41;5053554;28;20037;-75
2024/01/18 08:03:06;;;;;;;92.23;47.03;;;;;;;-144.74;100.00;63161.41;5053305;28;20490;-74
2024/01/18 08:05:31;;;;;;;112.87;50.20;;;;;;;-144.74;100.00;63161.41;5053625;28;20037;-74
2024/01/18 08:07:57;;;;;;;120.10;53.87;;;;;;;-144.74;100.00;63161.41;5053817;28;20033;-74
2024/01/18 08:10:23;;;;;;;111.20;53.40;;;;;;;-144.74;100.00;63161.41;5052756;28;20041;-72
2024/01/18 08:12:49;;;;;;;101.37;48.53;;;;;;;-144.74;100.00;63161.41;5053170;28;20032;-72
2024/01/18 08:15:14;;;;;;;101.63;47.90;;;;;;;-144.74;100.00;63161.41;5052829;28;20036;-70
2024/01/18 08:17:42;;;;;;;106.50;49.67;;;;;;;-144.74;100.00;63161.41;5053265;28;20479;-69
2024/01/18 08:20:12;;;;;;;97.20;47.63;;;;;;;-144.74;100.00;63161.41;5053148;28;20127;-72
2024/01/18 08:22:42;;;;;;;104.70;49.92;;;;;;;-144.74;100.00;63161.41;5053407;28;20048;-70
2024/01/18 08:25:12;;;;;;;99.47;46.77;;;;;;;-144.74;100.00;63161.41;5052090;28;20037;-70
2024/01/18 08:27:41;;;;;;;102.23;48.37;;;;;;;-144.74;100.00;63161.41;5053726;28;20025;-70
2024/01/18 08:30:07;;;;;;;102.50;50.87;;;;;;;-144.74;100.00;63161.41;5052651;28;20060;-70
2024/01/18 08:32:34;;;;;;;95.90;44.23;;;;;;;-144.74;100.00;63161.41;5052882;28;20044;-70
2024/01/18 08:35:06;;;;;;;107.23;50.30;;;;;;;-144.74;100.00;63161.41;5052024;28;20070;-71
2024/01/18 08:37:32;;;;;;;104.40;49.20;;;;;;;-144.74;100.00;63161.41;5050870;28;20032;-69
2024/01/18 08:39:58;;;;;;;85.87;41.40;;;;;;;-144.74;100.00;63161.41;5052102;28;20086;-69
2024/01/18 08:42:23;;;;;;;97.50;46.60;;;;;;;-144.74;100.00;63161.41;5053678;28;20029;-70
2024/01/18 08:44:48;;;;;;;91.47;42.27;;;;;;;-144.74;100.00;63161.41;5052415;28;20044;-69
2024/01/18 08:47:14;;;;;;;94.53;47.67;;;;;;;-144.74;100.00;63161.41;5051995;28;20027;-71
2024/01/18 08:49:40;;;;;;;79.77;41.23;;;;;;;-144.74;100.00;63161.41;5054046;28;20032;-69
2024/01/18 08:52:05;;;;;;;102.77;44.67;;;;;;;-144.74;100.00;63161.41;5052239;28;20107;-69
2024/01/18 08:54:31;;;;;;;89.53;43.60;;;;;;;-144.74;100.00;63161.41;5053324;28;20037;-69
2024/01/18 08:56:57;;;;;;;101.07;43.23;;;;;;;-144.74;100.00;63161.41;5057098;28;20025;-69
2024/01/18 08:59:23;;;;;;;80.93;42.00;;;;;;;-144.74;100.00;63161.41;5056527;28;20033;-70
2024/01/18 09:01:49;;;;;;;88.57;42.20;;;;;;;-144.74;100.00;63161.41;5052437;28;20048;-70
2024/01/18 09:04:16;;;;;;;85.77;41.73;;;;;;;-144.74;100.00;63161.41;5052156;28;20672;-71
2024/01/18 09:06:42;;;;;;;88.53;45.30;;;;;;;-144.74;100.00;63161.41;5053093;28;20021;-70
2024/01/18 09:09:11;;;;;;;73.67;37.30;;;;;;;-144.74;100.00;63161.41;5052672;28;20098;-70
2024/01/18 09:11:40;;;;;;;57.17;30.57;;;;;;;-144.74;100.00;63161.41;5052828;28;20027;-70
2024/01/18 09:14:05;;;;;;;54.60;28.17;;;;;;;-144.74;100.00;63161.41;5051859;28;20044;-70
2024/01/18 09:16:31;;;;;;;54.73;28.33;;;;;;;-144.74;100.00;63161.41;5055196;28;20066;-69
2024/01/18 09:18:57;;;;;;;49.73;26.80;;;;;;;-144.74;100.00;63161.41;5054131;28;20047;-69
2024/01/18 09:21:23;;;;;;;58.47;29.13;;;;;;;-144.74;100.00;63161.41;5056300;28;20021;-69
2024/01/18 09:23:48;;;;;;;49.13;27.07;;;;;;;-144.74;100.00;63161.41;5055326;28;20048;-70
2024/01/18 09:26:13;;;;;;;50.03;27.60;;;;;;;-144.74;100.00;63161.41;5056496;28;20028;-70
2024/01/18 09:28:39;;;;;;;48.87;26.40;;;;;;;-144.74;100.00;63161.41;5060589;28;20471;-70
2024/01/18 09:31:04;;;;;;;60.23;26.27;;;;;;;-144.74;100.00;63161.41;5056537;28;20092;-70
2024/01/18 09:33:29;;;;;;;51.53;25.47;;;;;;;-144.74;100.00;63161.41;5055774;28;20020;-69
2024/01/18 09:35:55;;;;;;;56.57;24.93;;;;;;;-144.74;100.00;63161.41;5055255;28;20019;-69
2024/01/18 09:38:21;;;;;;;50.67;24.63;;;;;;;-144.74;100.00;63161.41;5055587;28;20025;-69
2024/01/18 09:40:48;;;;;;;45.90;23.10;;;;;;;-144.74;100.00;63161.41;5056318;28;20029;-70
2024/01/18 09:43:15;;;;;;;39.63;22.00;;;;;;;-144.74;100.00;63161.41;5056076;28;20063;-71
2024/01/18 09:45:45;;;;;;;45.57;22.80;;;;;;;-144.74;100.00;63161.41;5055176;28;20040;-70
2024/01/18 09:48:12;;;;;;;45.00;22.63;;;;;;;-144.74;100.00;63161.41;5056219;28;20051;-69
2024/01/18 09:50:45;;;;;;;40.57;22.47;;;;;;;-144.74;100.00;63161.41;5055483;28;20033;-69
2024/01/18 09:53:12;;;;;;;35.87;20.87;;;;;;;-144.74;100.00;63161.41;5055606;28;20111;-70
2024/01/18 09:55:37;;;;;;;46.87;24.07;;;;;;;-144.74;100.00;63161.41;5053187;28;20029;-69
2024/01/18 09:58:08;;;;;;;40.40;21.17;;;;;;;-144.74;100.00;63161.41;5056340;28;20123;-69
2024/01/18 10:00:36;;;;;;;38.40;22.00;;;;;;;-144.74;100.00;63161.41;5052080;28;20041;-69
2024/01/18 10:03:02;;;;;;;44.53;22.23;;;;;;;-144.74;100.00;63161.41;5048345;28;20025;-69
2024/01/18 10:05:27;;;;;;;39.30;20.57;;;;;;;-144.74;100.00;63161.41;5051923;28;20043;-69
2024/01/18 10:07:52;;;;;;;46.53;20.70;;;;;;;-144.74;100.00;63161.41;5046183;28;20480;-69
2024/01/18 10:10:18;;;;;;;39.17;19.67;;;;;;;-144.74;100.00;63161.41;5051476;28;20125;-69
2024/01/18 10:12:46;;;;;;;42.25;20.77;;;;;;;-144.74;100.00;63161.41;5051796;28;20028;-69
2024/01/18 10:15:12;;;;;;;38.58;19.85;;;;;;;-144.74;100.00;63161.41;5052518;28;20036;-70
2024/01/18 10:17:38;;;;;;;44.13;18.40;;;;;;;-144.74;100.00;63161.41;5052351;28;20025;-69
2024/01/18 10:20:13;;;;;;;32.92;19.80;;;;;;;-144.74;100.00;63161.41;5062474;28;20036;-69
2024/01/18 10:22:40;;;;;;;34.37;17.73;;;;;;;-144.74;100.00;63161.41;5060649;28;20047;-70
2024/01/18 10:25:11;;;;;;;36.43;18.43;;;;;;;-144.74;100.00;63161.41;5054325;28;20032;-70
2024/01/18 10:27:39;;;;;;;47.72;17.10;;;;;;;-144.74;100.00;63161.41;5059365;28;20027;-70
2024/01/18 10:30:08;;;;;;;42.10;20.10;;;;;;;-144.74;100.00;63161.41;5054176;28;20144;-69
2024/01/18 10:32:33;;;;;;;34.87;18.47;;;;;;;-144.74;100.00;63161.41;5055055;28;20017;-71
2024/01/18 10:34:59;;;;;;;34.47;17.33;;;;;;;-144.74;100.00;63161.41;5056750;28;20029;-70
2024/01/18 10:37:25;;;;;;;34.43;17.43;;;;;;;-144.74;100.00;63161.41;5053771;28;20032;-70
2024/01/18 10:39:51;;;;;;;41.50;16.80;;;;;;;-144.74;100.00;63161.41;5049531;28;20048;-70
2024/01/18 10:42:17;;;;;;;25.93;15.90;;;;;;;-144.74;100.00;63161.41;5054700;28;20477;-72
2024/01/18 10:44:49;;;;;;;33.53;16.90;;;;;;;-144.74;100.00;63161.41;5053831;28;20036;-70
2024/01/18 10:47:15;;;;;;;33.10;16.17;;;;;;;-144.74;100.00;63161.41;5054962;28;20077;-70
2024/01/18 10:49:41;;;;;;;31.80;15.43;;;;;;;-144.74;100.00;63161.41;5054356;28;20032;-72